Latest Weather Observations for Tasman Island

IDT60901

Issued at 11:11 pm EST Saturday 18 April 2015 (issued every 10 minutes, with the page automatically refreshed every 10 minutes)

About weather observations | Map of Hobart area stations | Latest observations for Hobart area | Other Formats
Station Details ID: 094155 Name: TASMAN ISLAND Lat: -43.24 Lon: 148.00 Height: 240.0 m
Data from the previous 72 hours. | See also: Recent months at Tasman Island
Date/Time
EST
Tmp

°C
App
Tmp
°C
Dew
Point
°C
Rel
Hum
%
Delta-T

°C
Wind Press
QNH
hPa
Press
MSL
hPa
Rain
since
9 am
mm
Dir
 
Spd
km/h
Gust
km/h
Spd
kts
Gust
kts
18/11:00pm 9.8 5.3 4.2 68 2.5 E 17 33 9 18 1008.5 1008.4 1.2
18/10:30pm 9.7 7.3 5.1 73 2.1 WSW 7 22 4 12 1008.6 1008.5 1.2
18/10:00pm 9.9 7.0 4.9 71 2.3 NNE 9 20 5 11 1008.4 1008.3 1.2
18/09:30pm 9.9 7.0 4.9 71 2.3 N 9 30 5 16 1008.0 1007.9 1.2
18/09:00pm 10.0 7.2 5.0 71 2.3 SSE 9 32 5 17 1007.7 1007.6 1.2
18/08:30pm 10.2 6.3 5.2 71 2.3 NW 15 37 8 20 1007.5 1007.4 1.2
18/08:00pm 10.1 7.3 5.3 72 2.2 N 9 24 5 13 1006.8 1006.7 1.2
18/07:30pm 10.5 8.0 6.6 77 1.9 E 9 30 5 16 1006.1 1006.0 1.2
18/07:00pm 10.3 7.4 6.6 78 1.8 W 11 30 6 16 1005.8 1005.7 1.2
18/06:30pm 9.7 7.7 8.5 92 0.6 NNW 9 39 5 21 1005.1 1005.0 1.2
18/06:00pm 9.7 7.3 8.8 94 0.4 WNW 11 26 6 14 1004.6 1004.5 1.2
18/05:30pm 9.4 4.5 8.5 94 0.4 WSW 24 41 13 22 1004.8 1004.7 1.0
18/05:00pm 9.2 2.1 8.1 93 0.5 SW 35 52 19 28 1004.4 1004.3 0.6
18/04:30pm 9.2 1.2 7.5 89 0.8 SW 39 61 21 33 1004.1 1004.0 0.4
18/04:00pm 9.5 1.5 7.6 88 0.9 SW 39 57 21 31 1004.1 1004.0 0.0
18/03:30pm 9.6 1.0 8.0 90 0.8 SW 43 70 23 38 1003.1 1003.0 0.0
18/03:00pm 10.5 2.5 8.9 90 0.8 SSW 41 70 22 38 1002.5 1002.4 0.0
18/02:50pm 10.9 5.4 9.3 90 0.8 SSW 28 65 15 35 1002.3 1002.2 0.0
18/02:40pm 11.6 7.4 7.3 75 2.1 SSW 19 50 10 27 1002.3 1002.2 0.0
18/02:30pm 16.8 10.1 5.4 47 5.5 NW 30 44 16 24 1002.0 1001.9 0.0
18/02:07pm 17.4 9.7 5.4 45 5.9 NW 35 56 19 30 1001.7 1001.5 0.0
18/02:00pm 17.2 10.0 5.2 45 5.9 NW 32 46 17 25 1001.7 1001.5 0.0
18/01:30pm 18.6 12.0 4.0 38 7.0 NW 28 44 15 24 1001.9 1001.8 0.0
18/01:01pm 16.7 7.2 4.1 43 6.0 NW 43 63 23 34 1001.9 1001.8 0.0
18/01:00pm 16.6 6.9 4.0 43 6.0 NW 44 63 24 34 1001.8 1001.6 0.0
18/12:33pm 16.3 6.8 3.7 43 5.9 NW 43 63 23 34 1001.9 1001.8 0.0
18/12:30pm 16.5 7.4 3.9 43 5.9 NW 41 56 22 30 1002.1 1002.0 0.0
18/12:05pm 16.5 7.9 4.9 46 5.6 NW 39 57 21 31 1002.4 1002.3 0.0
18/12:00pm 16.3 6.9 4.4 45 5.7 NW 43 59 23 32 1002.4 1002.3 0.0
18/11:30am 15.8 4.7 4.5 47 5.4 NW 52 72 28 39 1002.5 1002.4 0.0
18/11:17am 15.4 5.1 4.8 49 5.0 NW 48 67 26 36 1002.8 1002.7 0.0
18/11:00am 15.3 5.1 5.0 50 4.9 NW 48 67 26 36 1003.1 1003.0 0.0
18/10:35am 15.3 8.5 5.2 51 4.8 NW 30 50 16 27 1003.7 1003.6 0.0
18/10:30am 15.0 8.2 5.2 52 4.7 NW 30 44 16 24 1004.0 1003.9 0.0
18/10:00am 15.1 10.6 5.9 54 4.5 NW 19 30 10 16 1004.6 1004.5 0.0
18/09:30am 14.3 9.0 5.1 54 4.4 NW 22 39 12 21 1005.0 1004.9 0.0
18/09:00am 14.0 7.4 4.0 51 4.6 NW 28 41 15 22 1005.5 1005.5 0.0
18/08:30am 13.2 6.4 3.0 50 4.6 NW 28 41 15 22 1006.3 1006.2 0.0
18/08:00am 12.2 6.0 2.1 50 4.4 WNW 24 35 13 19 1006.4 1006.3 0.0
18/07:30am 12.7 7.2 2.0 48 4.7 WNW 20 35 11 19 1005.9 1005.8 0.0
18/07:00am 12.9 7.4 1.9 47 4.8 WNW 20 35 11 19 1005.6 1005.6 0.0
18/06:30am 12.7 7.5 3.4 53 4.2 NW 20 32 11 17 1005.5 1005.5 0.0
18/06:00am 12.8 7.5 3.2 52 4.3 NW 20 30 11 16 1005.4 1005.4 0.0
18/05:30am 12.7 7.6 4.2 56 3.9 NW 20 39 11 21 1005.4 1005.4 0.0
18/05:00am 12.7 5.7 4.2 56 3.9 NNW 30 44 16 24 1005.5 1005.5 0.0
18/04:30am 12.9 7.4 3.8 54 4.2 NW 22 35 12 19 1005.9 1005.8 0.0
18/04:00am 13.2 9.0 3.8 53 4.3 NNW 15 26 8 14 1006.0 1005.9 0.0
18/03:30am 13.0 7.3 4.9 58 3.8 N 24 37 13 20 1005.9 1005.8 0.0
18/03:00am 13.3 6.6 3.9 53 4.3 N 28 48 15 26 1006.1 1006.0 0.0
18/02:51am 13.3 6.3 3.9 53 4.3 N 30 48 16 26 1006.2 1006.1 0.0
18/02:30am 12.7 7.0 6.7 67 2.9 N 26 41 14 22 1006.8 1006.7 0.0
18/02:00am 12.7 7.0 6.5 66 3.0 N 26 39 14 21 1007.7 1007.6 0.0
18/01:30am 12.7 7.2 7.4 70 2.6 NNE 26 37 14 20 1008.8 1008.7 0.0
18/01:20am 13.3 7.0 5.7 60 3.6 N 28 48 15 26 1009.0 1009.0 0.0
18/01:00am 13.1 8.0 6.0 62 3.4 NNW 22 37 12 20 1008.9 1008.9 0.0
18/12:30am 12.9 7.8 6.0 63 3.3 NNW 22 33 12 18 1009.4 1009.4 0.0
18/12:00am 12.9 9.0 7.1 68 2.8 N 17 32 9 17 1009.7 1009.7 0.0
 
Date/Time
EST
Tmp

°C
App
Tmp
°C
Dew
Point
°C
Rel
Hum
%
Delta-T

°C
Wind Press
QNH
hPa
Press
MSL
hPa
Rain
since
9 am
mm
Dir
 
Spd
km/h
Gust
km/h
Spd
kts
Gust
kts
17/11:30pm 12.9 9.1 6.0 63 3.3 NNW 15 30 8 16 1010.4 1010.3 0.0
17/11:00pm 13.1 6.4 5.8 61 3.5 NNW 30 43 16 23 1010.6 1010.5 0.0
17/10:30pm 13.4 6.4 5.8 60 3.6 NNW 32 46 17 25 1011.1 1011.0 0.0
17/10:00pm 13.2 7.4 6.1 62 3.4 NW 26 43 14 23 1011.6 1011.5 0.0
17/09:30pm 13.6 6.9 5.7 59 3.8 NW 30 39 16 21 1011.8 1011.7 0.0
17/09:00pm 13.6 7.0 6.2 61 3.6 NW 30 41 16 22 1012.1 1012.0 0.0
17/08:30pm 13.3 8.3 6.6 64 3.3 NW 22 30 12 16 1012.5 1012.5 0.0
17/08:00pm 12.9 10.9 7.1 68 2.8 WNW 7 9 4 5 1012.7 1012.7 0.0
17/07:30pm 12.9 11.0 7.6 70 2.6 W 7 9 4 5 1012.8 1012.8 0.0
17/07:00pm 13.2 11.9 10.0 81 1.7 WNW 7 9 4 5 1013.0 1013.0 0.0
17/06:30pm 13.5 12.2 11.2 86 1.2 NW 9 17 5 9 1013.0 1013.0 0.0
17/06:00pm 13.8 10.5 11.5 86 1.2 N 20 28 11 15 1013.1 1013.1 0.0
17/05:30pm 14.0 9.2 10.4 79 1.9 N 26 32 14 17 1012.9 1012.9 0.0
17/05:00pm 14.1 9.8 10.9 81 1.7 N 24 33 13 18 1013.1 1013.1 0.0
17/04:30pm 14.2 9.2 10.8 80 1.8 N 28 37 15 20 1013.4 1013.4 0.0
17/04:00pm 14.3 9.2 10.7 79 1.9 NNE 28 37 15 20 1013.7 1013.7 0.0
17/03:30pm 15.0 10.5 10.2 73 2.5 N 24 37 13 20 1014.5 1014.4 0.0
17/03:00pm 15.5 10.3 9.0 65 3.4 N 26 37 14 20 1014.5 1014.4 0.0
17/02:30pm 15.4 10.9 10.0 70 2.9 N 24 30 13 16 1015.0 1014.9 0.0
17/02:00pm 15.0 9.8 8.7 66 3.2 N 26 35 14 19 1015.2 1015.1 0.0
17/01:30pm 16.5 12.7 9.0 61 3.9 N 19 35 10 19 1015.7 1015.6 0.0
17/01:00pm 15.2 10.7 8.7 65 3.3 N 22 32 12 17 1016.1 1016.1 0.0
17/12:30pm 14.9 10.7 8.4 65 3.3 NNE 20 32 11 17 1016.6 1016.6 0.0
17/12:00pm 15.0 11.3 8.0 63 3.5 N 17 28 9 15 1017.6 1017.6 0.0
17/11:30am 15.1 9.9 7.4 60 3.9 NW 24 35 13 19 1018.1 1018.1 0.0
17/11:00am 15.0 11.6 7.5 61 3.8 NW 15 22 8 12 1018.4 1018.4 0.0
17/10:30am 14.4 11.0 7.5 63 3.4 NW 15 22 8 12 1018.7 1018.7 0.0
17/10:00am 13.9 9.6 7.2 64 3.3 NW 19 28 10 15 1019.1 1019.0 0.0
17/09:30am 13.5 10.1 7.5 67 3.0 NNW 15 24 8 13 1019.5 1019.5 0.0
17/09:00am 12.9 8.3 6.7 66 3.0 NW 20 32 11 17 1019.8 1019.8 1.0
17/08:30am 12.2 6.7 5.8 65 3.0 NW 24 35 13 19 1019.9 1019.9 1.0
17/08:00am 11.8 7.2 6.5 70 2.5 NW 20 32 11 17 1020.1 1020.1 1.0
17/07:30am 10.8 6.3 6.9 77 1.9 NNW 20 26 11 14 1020.0 1020.0 1.0
17/07:00am 10.1 5.7 6.6 79 1.7 NNW 19 24 10 13 1019.8 1019.8 1.0
17/06:30am 9.6 6.9 5.8 77 1.8 N 9 17 5 9 1019.8 1019.8 1.0
17/06:00am 10.4 7.1 6.2 75 2.0 WNW 13 22 7 12 1019.6 1019.6 1.0
17/05:30am 10.6 8.4 6.0 73 2.2 WSW 7 17 4 9 1019.6 1019.6 1.0
17/05:00am 10.9 6.6 5.4 69 2.6 WNW 17 35 9 19 1019.3 1019.2 1.0
17/04:30am 10.5 8.7 7.0 79 1.7 NW 6 17 3 9 1019.3 1019.2 1.0
17/04:00am 10.8 9.3 8.4 85 1.2 E 6 13 3 7 1019.1 1019.0 1.0
17/03:30am 10.6 9.2 8.9 89 0.9 W 6 13 3 7 1019.2 1019.1 1.0
17/03:00am 10.3 9.2 8.6 89 0.8 SSW 4 15 2 8 1019.3 1019.2 1.0
17/02:30am 10.4 8.0 8.7 89 0.8 NW 11 22 6 12 1019.4 1019.3 1.0
17/02:00am 10.5 7.3 8.3 86 1.1 NW 15 28 8 15 1019.6 1019.6 1.0
17/01:30am 11.1 9.3 8.0 81 1.5 WNW 7 24 4 13 1020.0 1020.0 1.0
17/01:00am 11.2 8.6 7.7 79 1.7 WNW 11 26 6 14 1019.7 1019.7 1.0
17/12:30am 11.3 7.9 7.6 78 1.8 WNW 15 26 8 14 1019.7 1019.7 1.0
17/12:00am 11.0 7.3 8.1 82 1.4 WNW 17 28 9 15 1019.9 1019.9 1.0
 
Date/Time
EST
Tmp

°C
App
Tmp
°C
Dew
Point
°C
Rel
Hum
%
Delta-T

°C
Wind Press
QNH
hPa
Press
MSL
hPa
Rain
since
9 am
mm
Dir
 
Spd
km/h
Gust
km/h
Spd
kts
Gust
kts
16/11:30pm 10.5 7.3 8.6 88 0.9 WNW 15 30 8 16 1019.8 1019.8 1.0
16/11:00pm 10.1 7.4 8.9 92 0.6 WNW 13 20 7 11 1020.2 1020.2 0.8
16/10:30pm 10.2 6.3 9.3 94 0.5 WNW 20 32 11 17 1020.4 1020.4 0.8
16/10:00pm 10.0 5.9 8.8 92 0.6 WNW 20 30 11 16 1020.5 1020.5 0.6
16/09:30pm 10.6 8.7 8.9 89 0.9 NNW 9 26 5 14 1020.4 1020.4 0.2
16/09:00pm 11.5 7.6 7.2 75 2.1 WNW 17 37 9 20 1020.3 1020.3 0.2
16/08:30pm 11.7 7.7 6.8 72 2.4 WNW 17 30 9 16 1019.9 1019.9 0.2
16/08:00pm 11.4 4.5 6.3 71 2.4 NW 32 46 17 25 1019.6 1019.6 0.2
16/07:52pm 11.7 4.7 6.2 69 2.6 NW 32 50 17 27 1019.5 1019.5 0.2
16/07:30pm 12.2 5.1 5.6 64 3.1 NW 32 43 17 23 1019.2 1019.1 0.2
16/07:00pm 12.2 5.8 5.4 63 3.2 NW 28 44 15 24 1018.9 1018.8 0.2
16/06:33pm 12.2 5.1 5.4 63 3.2 WNW 32 50 17 27 1018.9 1018.8 0.2
16/06:30pm 12.3 5.0 5.5 63 3.2 WNW 33 50 18 27 1018.9 1018.8 0.2
16/06:00pm 12.2 3.7 5.1 62 3.3 NW 39 56 21 30 1018.6 1018.6 0.2
16/05:30pm 12.1 5.0 5.5 64 3.1 NW 32 48 17 26 1018.7 1018.7 0.2
16/05:00pm 12.3 5.2 5.5 63 3.2 NW 32 50 17 27 1018.4 1018.4 0.2
16/04:51pm 12.2 6.6 5.4 63 3.2 NW 24 50 13 27 1018.3 1018.3 0.2
16/04:30pm 12.4 7.3 5.8 64 3.1 NW 22 46 12 25 1018.1 1018.1 0.2
16/04:00pm 12.5 8.9 5.0 60 3.5 NW 13 37 7 20 1018.2 1018.2 0.2
16/03:30pm 13.7 9.9 5.6 58 3.9 ENE 15 54 8 29 1018.0 1018.0 0.2
16/03:00pm 13.5 10.3 4.9 56 4.0 WNW 11 35 6 19 1018.0 1018.0 0.2
16/02:30pm 13.3 8.4 5.2 58 3.8 NW 20 48 11 26 1018.1 1018.1 0.2
16/02:28pm 13.3 8.4 5.2 58 3.8 NW 20 48 11 26 1018.2 1018.2 0.2
16/02:00pm 12.3 9.6 5.7 64 3.1 NNE 9 26 5 14 1018.2 1018.2 0.0
16/01:30pm 12.6 9.5 5.5 62 3.4 N 11 32 6 17 1018.1 1018.1 0.0
16/01:00pm 12.4 9.5 4.9 60 3.5 NNW 9 30 5 16 1018.1 1018.1 0.0
16/12:30pm 12.7 9.4 4.4 57 3.8 W 11 37 6 20 1018.3 1018.3 0.0
16/12:00pm 11.9 8.5 4.2 59 3.5 NW 11 32 6 17 1018.4 1018.4 0.0
16/11:30am 12.3 9.5 5.2 62 3.3 E 9 22 5 12 1018.2 1018.2 0.0
16/11:00am 12.4 9.2 5.3 62 3.3 NNW 11 30 6 16 1018.4 1018.4 0.0
16/10:30am 12.0 8.9 5.6 65 3.0 WSW 11 39 6 21 1018.0 1018.0 0.0
16/10:00am 11.7 7.8 5.3 65 3.0 W 15 39 8 21 1018.1 1018.1 0.0
16/09:30am 11.6 7.0 6.7 72 2.4 WSW 20 52 11 28 1017.9 1017.9 0.0
16/09:00am 11.3 7.0 8.0 80 1.6 SW 20 52 11 28 1017.6 1017.6 5.4
16/08:30am 11.2 6.2 8.2 82 1.5 WSW 24 50 13 27 1017.8 1017.8 5.4
16/08:00am 10.8 5.1 9.9 94 0.5 SW 30 61 16 33 1017.3 1017.3 5.4
16/07:30am 10.7 4.6 10.4 98 0.2 SSW 33 72 18 39 1016.6 1016.6 5.4
16/07:00am 10.7 3.9 10.5 99 0.1 SW 37 63 20 34 1015.9 1015.9 5.4
16/06:30am 11.2 5.8 11.0 99 0.1 SW 30 61 16 33 1015.7 1015.6 5.4
16/06:00am 11.4 6.5 11.2 99 0.1 SW 28 59 15 32 1015.4 1015.3 5.4
16/05:57am 11.2 6.2 11.0 99 0.1 SW 28 57 15 31 1015.3 1015.2 5.4
16/05:30am 11.2 7.7 11.0 99 0.1 SW 20 44 11 24 1015.0 1014.9 5.4
16/05:00am 11.8 6.6 11.6 99 0.1 SW 30 52 16 28 1014.2 1014.2 4.8
16/04:49am 11.9 7.1 11.7 99 0.1 SW 28 52 15 28 1014.0 1014.0 4.4
16/04:30am 12.3 9.9 11.5 95 0.4 SW 15 35 8 19 1014.0 1014.0 4.4
16/04:00am 14.3 12.7 11.6 84 1.5 W 11 43 6 23 1013.7 1013.7 4.4
16/03:30am 13.8 11.1 11.8 88 1.1 W 17 35 9 19 1013.4 1013.4 4.4
16/03:00am 13.9 12.5 12.3 90 0.9 WNW 11 35 6 19 1013.3 1013.3 4.4
16/02:30am 13.8 13.4 12.4 91 0.8 W 6 19 3 10 1013.6 1013.6 4.4
16/02:00am 13.7 12.9 12.9 95 0.4 WNW 9 24 5 13 1013.7 1013.7 4.2
16/01:30am 14.2 13.9 13.4 95 0.4 WNW 7 26 4 14 1014.5 1014.4 3.4
16/01:00am 15.5 13.4 12.4 82 1.7 WNW 15 24 8 13 1014.2 1014.2 3.0
16/12:30am 15.1 14.0 13.1 88 1.1 NW 11 17 6 9 1014.1 1014.1 3.0
16/12:00am 14.7 13.2 13.2 91 0.8 WNW 13 20 7 11 1014.1 1014.1 3.0
 
Date/Time
EST
Tmp

°C
App
Tmp
°C
Dew
Point
°C
Rel
Hum
%
Delta-T

°C
Wind Press
QNH
hPa
Press
MSL
hPa
Rain
since
9 am
mm
Dir
 
Spd
km/h
Gust
km/h
Spd
kts
Gust
kts
15/11:30pm 14.6 13.3 13.6 94 0.6 NNW 13 19 7 10 1014.0 1014.0 3.0

Latest Capital City Observations: Canberra | Sydney | Melbourne | Brisbane | Adelaide | Perth | Hobart | Darwin

Other Formats:

Comma delimited format used in spreadsheet applications
http://www.bom.gov.au/fwo/IDT60901/IDT60901.95986.axf

JavaScript Object Notation format (JSON) in row-major order
http://www.bom.gov.au/fwo/IDT60901/IDT60901.95986.json